Time;durP1;ratioP1;P1;durP2;ratioP2;P2;SDS_P1;SDS_P2;PMS_P1;PMS_P2;Temp;Humidity;BMP_temperature;BMP_pressure;BME280_temperature;BME280_humidity;BME280_pressure;Samples;Min_cycle;Max_cycle;Signal;HPM_P1;HPM_P2
2023/05/03 00:02:01;;;;;;;;;;;;;;;;;;5072363;28;20030;-64
2023/05/03 00:04:27;;;;;;;;;;;;;;;;;;5074262;28;20282;-65
2023/05/03 00:06:54;;;;;;;;;;;;;;;;;;5071774;28;19932;-66
2023/05/03 00:09:20;;;;;;;;;;;;;;;;;;5071317;28;19925;-65
2023/05/03 00:11:45;;;;;;;;;;;;;;;;;;5070597;28;19959;-66
2023/05/03 00:14:11;;;;;;;;;;;;;;;;;;5068122;28;19982;-65
2023/05/03 00:16:37;;;;;;;;;;;;;;;;;;5072823;28;20027;-65
2023/05/03 00:19:03;;;;;;;;;;;;;;;;;;5071961;28;19929;-64
2023/05/03 00:21:30;;;;;;;;;;;;;;;;;;5066859;28;20394;-66
2023/05/03 00:23:56;;;;;;;;;;;;;;;;;;5068069;28;19974;-65
2023/05/03 00:26:22;;;;;;;;;;;;;;;;;;5071459;28;19928;-66
2023/05/03 00:28:48;;;;;;;;;;;;;;;;;;5084667;28;19955;-65
2023/05/03 00:31:14;;;;;;;;;;;;;;;;;;5071989;28;19955;-65
2023/05/03 00:33:40;;;;;;;;;;;;;;;;;;5070725;28;19924;-65
2023/05/03 00:36:06;;;;;;;;;;;;;;;;;;5072827;28;19920;-65
2023/05/03 00:38:31;;;;;;;;;;;;;;;;;;5073230;28;19920;-66
2023/05/03 00:40:57;;;;;;;;;;;;;;;;;;5071244;28;20392;-66
2023/05/03 00:43:23;;;;;;;;;;;;;;;;;;5072691;28;19978;-62
2023/05/03 00:45:49;;;;;;;;;;;;;;;;;;5070929;28;19928;-62
2023/05/03 00:48:17;;;;;;;;;;;;;;;;;;5073397;28;19927;-62
2023/05/03 00:50:43;;;;;;;;;;;;;;;;;;5073002;28;20549;-66
2023/05/03 00:53:09;;;;;;;;;;;;;;;;;;5071050;28;19955;-64
2023/05/03 00:55:35;;;;;;;;;;;;;;;;;;5071422;28;19924;-64
2023/05/03 00:58:01;;;;;;;;;;;;;;;;;;5070208;28;20019;-66
2023/05/03 01:00:27;;;;;;;;;;;;;;;;;;5070206;28;19925;-61
2023/05/03 01:02:53;;;;;;;;;;;;;;;;;;5071764;28;19928;-61
2023/05/03 01:05:19;;;;;;;;;;;;;;;;;;5070670;28;19935;-61
2023/05/03 01:07:45;;;;;;;;;;;;;;;;;;5071199;28;19928;-62
2023/05/03 01:10:11;;;;;;;;;;;;;;;;;;5072489;28;19920;-62
2023/05/03 01:12:37;;;;;;;;;;;;;;;;;;5070286;28;20674;-62
2023/05/03 01:15:03;;;;;;;;;;;;;;;;;;5068496;28;19924;-62
2023/05/03 01:17:29;;;;;;;;;;;;;;;;;;5076863;28;20121;-62
2023/05/03 01:19:55;;;;;;;;;;;;;;;;;;5064159;28;19931;-62
2023/05/03 01:22:21;;;;;;;;;;;;;;;;;;5070760;28;20468;-61
2023/05/03 01:24:47;;;;;;;;;;;;;;;;;;5072163;28;20004;-62
2023/05/03 01:27:16;;;;;;;;;;;;;;;;;;5068344;28;20140;-61
2023/05/03 01:29:43;;;;;;;;;;;;;;;;;;5064917;28;20706;-62
2023/05/03 01:32:09;;;;;;;;;;;;;;;;;;5064702;28;20717;-62
2023/05/03 01:34:35;;;;;;;;;;;;;;;;;;5070733;28;19929;-61
2023/05/03 01:37:02;;;;;;;;;;;;;;;;;;5068164;28;20356;-60
2023/05/03 01:39:28;;;;;;;;;;;;;;;;;;5070288;28;19955;-60
2023/05/03 01:41:53;;;;;;;;;;;;;;;;;;5070294;28;19963;-61
2023/05/03 01:44:19;;;;;;;;;;;;;;;;;;5068435;28;19924;-61
2023/05/03 01:46:45;;;;;;;;;;;;;;;;;;5070210;28;20385;-61
2023/05/03 01:49:11;;;;;;;;;;;;;;;;;;5071417;28;19920;-61
2023/05/03 01:51:37;;;;;;;;;;;;;;;;;;5068166;28;20362;-61
2023/05/03 01:54:03;;;;;;;;;;;;;;;;;;5069625;28;19925;-61
2023/05/03 01:56:29;;;;;;;;;;;;;;;;;;5062087;28;19927;-61
2023/05/03 01:58:55;;;;;;;;;;;;;;;;;;5069407;28;19927;-61
2023/05/03 02:01:21;;;;;;;;;;;;;;;;;;5052133;28;20007;-61
2023/05/03 02:03:47;;;;;;;;;;;;;;;;;;5071165;28;20293;-61
2023/05/03 02:06:13;;;;;;;;;;;;;;;;;;5067784;28;19924;-61
2023/05/03 02:08:38;;;;;;;;;;;;;;;;;;5069607;28;20065;-62
2023/05/03 02:11:05;;;;;;;;;;;;;;;;;;5069714;28;19920;-61
2023/05/03 02:13:31;;;;;;;;;;;;;;;;;;5069625;28;19976;-61
2023/05/03 02:15:57;;;;;;;;;;;;;;;;;;5064327;28;19928;-61
2023/05/03 02:18:23;;;;;;;;;;;;;;;;;;5046407;28;19920;-61
2023/05/03 02:20:49;;;;;;;;;;;;;;;;;;5070531;28;19954;-61
2023/05/03 02:23:15;;;;;;;;;;;;;;;;;;5071234;28;20361;-61
2023/05/03 02:25:41;;;;;;;;;;;;;;;;;;5066326;28;19921;-60
2023/05/03 02:28:07;;;;;;;;;;;;;;;;;;5066782;28;19927;-61
2023/05/03 02:30:33;;;;;;;;;;;;;;;;;;5062703;28;20037;-60
2023/05/03 02:32:58;;;;;;;;;;;;;;;;;;5064284;28;19935;-61
2023/05/03 02:35:25;;;;;;;;;;;;;;;;;;5069454;28;19921;-61
2023/05/03 02:37:51;;;;;;;;;;;;;;;;;;5066017;28;19926;-61
2023/05/03 02:40:17;;;;;;;;;;;;;;;;;;5067710;28;19932;-62
2023/05/03 02:42:42;;;;;;;;;;;;;;;;;;5068251;28;20441;-61
2023/05/03 02:45:08;;;;;;;;;;;;;;;;;;5082431;28;19932;-61
2023/05/03 02:47:34;;;;;;;;;;;;;;;;;;5069378;28;19985;-61
2023/05/03 02:50:00;;;;;;;;;;;;;;;;;;5069008;28;19925;-61
2023/05/03 02:52:26;;;;;;;;;;;;;;;;;;5067993;28;20003;-61
2023/05/03 02:54:52;;;;;;;;;;;;;;;;;;5068827;28;19924;-61
2023/05/03 02:57:18;;;;;;;;;;;;;;;;;;5069283;28;19924;-60
2023/05/03 02:59:44;;;;;;;;;;;;;;;;;;5069709;28;19929;-60
2023/05/03 03:02:10;;;;;;;;;;;;;;;;;;5066609;28;19920;-60
2023/05/03 03:04:36;;;;;;;;;;;;;;;;;;5067701;28;20247;-60
2023/05/03 03:07:02;;;;;;;;;;;;;;;;;;5068850;28;19936;-60
2023/05/03 03:09:28;;;;;;;;;;;;;;;;;;5070277;28;20017;-61
2023/05/03 03:11:54;;;;;;;;;;;;;;;;;;5071011;28;20564;-61
2023/05/03 03:14:19;;;;;;;;;;;;;;;;;;5066604;28;20427;-61
2023/05/03 03:16:45;;;;;;;;;;;;;;;;;;5065618;28;19925;-61
2023/05/03 03:19:11;;;;;;;;;;;;;;;;;;5080889;28;19963;-61
2023/05/03 03:21:37;;;;;;;;;;;;;;;;;;5067427;28;20354;-61
2023/05/03 03:24:03;;;;;;;;;;;;;;;;;;5069765;28;20397;-60
2023/05/03 03:26:29;;;;;;;;;;;;;;;;;;5069108;28;19928;-61
2023/05/03 03:28:55;;;;;;;;;;;;;;;;;;5066007;28;19930;-61
2023/05/03 03:31:21;;;;;;;;;;;;;;;;;;5059513;28;20069;-62
2023/05/03 03:33:47;;;;;;;;;;;;;;;;;;5062927;28;20419;-61
2023/05/03 03:36:13;;;;;;;;;;;;;;;;;;5066348;28;19924;-62
2023/05/03 03:38:40;;;;;;;;;;;;;;;;;;5067493;28;20045;-62
2023/05/03 03:41:06;;;;;;;;;;;;;;;;;;5068678;28;19935;-60
2023/05/03 03:43:31;;;;;;;;;;;;;;;;;;5067845;28;19925;-60
2023/05/03 03:45:57;;;;;;;;;;;;;;;;;;5066127;28;19944;-61
2023/05/03 03:48:23;;;;;;;;;;;;;;;;;;5064788;28;19924;-61
2023/05/03 03:50:49;;;;;;;;;;;;;;;;;;5066318;28;19925;-61
2023/05/03 03:53:15;;;;;;;;;;;;;;;;;;5069837;28;19925;-61
2023/05/03 03:55:41;;;;;;;;;;;;;;;;;;5067817;28;19932;-61
2023/05/03 03:58:07;;;;;;;;;;;;;;;;;;5069837;28;19920;-61
2023/05/03 04:00:33;;;;;;;;;;;;;;;;;;5067371;28;19936;-61
2023/05/03 04:02:59;;;;;;;;;;;;;;;;;;5069810;28;19929;-61
2023/05/03 04:05:25;;;;;;;;;;;;;;;;;;5059626;28;19924;-61
2023/05/03 04:07:51;;;;;;;;;;;;;;;;;;5077886;28;20274;-61
2023/05/03 04:10:17;;;;;;;;;;;;;;;;;;5068371;28;19927;-61
2023/05/03 04:12:42;;;;;;;;;;;;;;;;;;5067135;28;19924;-60
2023/05/03 04:15:08;;;;;;;;;;;;;;;;;;5067286;28;20007;-61
2023/05/03 04:17:34;;;;;;;;;;;;;;;;;;5067121;28;20266;-60
2023/05/03 04:20:02;;;;;;;;;;;;;;;;;;5073823;22;19974;-62
2023/05/03 04:22:29;;;;;;;;;;;;;;;;;;5069718;28;20336;-62
2023/05/03 04:24:55;;;;;;;;;;;;;;;;;;5069526;28;19982;-62
2023/05/03 04:27:22;;;;;;;;;;;;;;;;;;5069887;28;19968;-62
2023/05/03 04:29:47;;;;;;;;;;;;;;;;;;5063983;28;19934;-61
2023/05/03 04:32:15;;;;;;;;;;;;;;;;;;5065477;28;19920;-61
2023/05/03 04:34:42;;;;;;;;;;;;;;;;;;5067484;28;19927;-61
2023/05/03 04:37:08;;;;;;;;;;;;;;;;;;5071757;28;19924;-63
2023/05/03 04:39:34;;;;;;;;;;;;;;;;;;5071421;28;20254;-62
2023/05/03 04:42:00;;;;;;;;;;;;;;;;;;5074274;28;19932;-62
2023/05/03 04:44:27;;;;;;;;;;;;;;;;;;5072119;28;19927;-62
2023/05/03 04:46:53;;;;;;;;;;;;;;;;;;5058361;28;20271;-62
2023/05/03 04:49:18;;;;;;;;;;;;;;;;;;5064658;28;19995;-62
2023/05/03 04:51:44;;;;;;;;;;;;;;;;;;5074190;28;19921;-62
2023/05/03 04:54:10;;;;;;;;;;;;;;;;;;5069718;28;20342;-61
2023/05/03 04:56:36;;;;;;;;;;;;;;;;;;5070635;28;19931;-60
2023/05/03 04:59:04;;;;;;;;;;;;;;;;;;5066727;28;19925;-60
2023/05/03 05:01:30;;;;;;;;;;;;;;;;;;5068700;28;19939;-60
2023/05/03 05:03:56;;;;;;;;;;;;;;;;;;5068964;28;19920;-61
2023/05/03 05:06:21;;;;;;;;;;;;;;;;;;5070904;28;19920;-61
2023/05/03 05:08:47;;;;;;;;;;;;;;;;;;5072350;28;19936;-62
2023/05/03 05:11:13;;;;;;;;;;;;;;;;;;5072106;28;20013;-61
2023/05/03 05:13:39;;;;;;;;;;;;;;;;;;5068269;28;19929;-61
2023/05/03 05:16:05;;;;;;;;;;;;;;;;;;5073159;28;20366;-61
2023/05/03 05:18:31;;;;;;;;;;;;;;;;;;5068574;28;19933;-61
2023/05/03 05:20:57;;;;;;;;;;;;;;;;;;5070704;28;19928;-61
2023/05/03 05:23:23;;;;;;;;;;;;;;;;;;5073004;28;19927;-61
2023/05/03 05:25:49;;;;;;;;;;;;;;;;;;5070741;28;19920;-61
2023/05/03 05:28:15;;;;;;;;;;;;;;;;;;5071516;28;19920;-61
2023/05/03 05:30:41;;;;;;;;;;;;;;;;;;5070423;28;19985;-62
2023/05/03 05:33:07;;;;;;;;;;;;;;;;;;5066559;28;19928;-60
2023/05/03 05:35:32;;;;;;;;;;;;;;;;;;5067655;28;20382;-61
2023/05/03 05:37:58;;;;;;;;;;;;;;;;;;5067134;28;19935;-61
2023/05/03 05:40:25;;;;;;;;;;;;;;;;;;5069330;28;19931;-60
2023/05/03 05:42:51;;;;;;;;;;;;;;;;;;5069397;28;19929;-61
2023/05/03 05:45:17;;;;;;;;;;;;;;;;;;5067869;28;19925;-60
2023/05/03 05:47:43;;;;;;;;;;;;;;;;;;5062050;28;19920;-60
2023/05/03 05:50:09;;;;;;;;;;;;;;;;;;5069589;28;19928;-60
2023/05/03 05:52:35;;;;;;;;;;;;;;;;;;5070429;28;20027;-60
2023/05/03 05:55:01;;;;;;;;;;;;;;;;;;5069275;28;19977;-60
2023/05/03 05:57:27;;;;;;;;;;;;;;;;;;5069793;28;19931;-60
2023/05/03 05:59:53;;;;;;;;;;;;;;;;;;5070337;28;19920;-60
2023/05/03 06:02:22;;;;;;;;;;;;;;;;;;5068484;28;19928;-60
2023/05/03 06:04:47;;;;;;;;;;;;;;;;;;5070284;28;19947;-60
2023/05/03 06:07:14;;;;;;;;;;;;;;;;;;5071572;28;20385;-60
2023/05/03 06:09:40;;;;;;;;;;;;;;;;;;5066336;28;19970;-60
2023/05/03 06:12:06;;;;;;;;;;;;;;;;;;5069230;28;19924;-60
2023/05/03 06:14:32;;;;;;;;;;;;;;;;;;5069947;28;19931;-60
2023/05/03 06:16:59;;;;;;;;;;;;;;;;;;5068967;28;19992;-60
2023/05/03 06:19:25;;;;;;;;;;;;;;;;;;5068734;28;19971;-60
2023/05/03 06:21:51;;;;;;;;;;;;;;;;;;5053130;28;19956;-61
2023/05/03 06:24:19;;;;;;;;;;;;;;;;;;5069622;28;19926;-60
2023/05/03 06:26:45;;;;;;;;;;;;;;;;;;5061897;28;19966;-60
2023/05/03 06:29:11;;;;;;;;;;;;;;;;;;5062578;28;19932;-60
2023/05/03 06:31:37;;;;;;;;;;;;;;;;;;5064825;28;19921;-60
2023/05/03 06:34:03;;;;;;;;;;;;;;;;;;5065902;28;19920;-60
2023/05/03 06:36:30;;;;;;;;;;;;;;;;;;5068244;28;19927;-60
2023/05/03 06:38:56;;;;;;;;;;;;;;;;;;5069379;28;19931;-60
2023/05/03 06:41:22;;;;;;;;;;;;;;;;;;5070563;28;19920;-60
2023/05/03 06:43:48;;;;;;;;;;;;;;;;;;5068318;28;19928;-60
2023/05/03 06:46:14;;;;;;;;;;;;;;;;;;5071989;28;19971;-60
2023/05/03 06:48:40;;;;;;;;;;;;;;;;;;5070273;28;20281;-60
2023/05/03 06:51:06;;;;;;;;;;;;;;;;;;5070704;28;19920;-59
2023/05/03 06:53:31;;;;;;;;;;;;;;;;;;5068155;28;19924;-60
2023/05/03 06:55:57;;;;;;;;;;;;;;;;;;5068110;28;19924;-61
2023/05/03 06:58:23;;;;;;;;;;;;;;;;;;5059230;28;19924;-60
2023/05/03 07:00:49;;;;;;;;;;;;;;;;;;5070525;28;20381;-60
2023/05/03 07:03:15;;;;;;;;;;;;;;;;;;5070947;28;19940;-60
2023/05/03 07:05:41;;;;;;;;;;;;;;;;;;5070481;28;20323;-60
2023/05/03 07:08:07;;;;;;;;;;;;;;;;;;5071938;28;19920;-60
2023/05/03 07:10:33;;;;;;;;;;;;;;;;;;5071810;28;19926;-60
2023/05/03 07:12:59;;;;;;;;;;;;;;;;;;5070661;28;20011;-60
2023/05/03 07:15:25;;;;;;;;;;;;;;;;;;5070565;28;20026;-60
2023/05/03 07:17:51;;;;;;;;;;;;;;;;;;5067696;28;19931;-61
2023/05/03 07:20:17;;;;;;;;;;;;;;;;;;5061479;28;19989;-61
2023/05/03 07:22:43;;;;;;;;;;;;;;;;;;5064691;28;19978;-60
2023/05/03 07:25:11;;;;;;;;;;;;;;;;;;5070163;28;19935;-60
2023/05/03 07:27:36;;;;;;;;;;;;;;;;;;5068228;28;20050;-61
2023/05/03 07:30:03;;;;;;;;;;;;;;;;;;5069692;28;19920;-62
2023/05/03 07:32:29;;;;;;;;;;;;;;;;;;5068893;28;20340;-62
2023/05/03 07:34:55;;;;;;;;;;;;;;;;;;5062948;28;19924;-61
2023/05/03 07:37:21;;;;;;;;;;;;;;;;;;5064814;28;19978;-61
2023/05/03 07:39:48;;;;;;;;;;;;;;;;;;5068969;28;19924;-61
2023/05/03 07:42:13;;;;;;;;;;;;;;;;;;5071208;28;20015;-60
2023/05/03 07:44:40;;;;;;;;;;;;;;;;;;5069031;28;20007;-61
2023/05/03 07:47:05;;;;;;;;;;;;;;;;;;5069813;28;19960;-61
2023/05/03 07:49:34;;;;;;;;;;;;;;;;;;5068011;28;19960;-62
2023/05/03 07:52:00;;;;;;;;;;;;;;;;;;5070738;28;19936;-62
2023/05/03 07:54:26;;;;;;;;;;;;;;;;;;5070869;28;19921;-61
2023/05/03 07:56:52;;;;;;;;;;;;;;;;;;5072137;28;19925;-61
2023/05/03 07:59:18;;;;;;;;;;;;;;;;;;5071360;28;19931;-61
2023/05/03 08:01:44;;;;;;;;;;;;;;;;;;5071040;28;19947;-61
2023/05/03 08:04:10;;;;;;;;;;;;;;;;;;5069638;28;19924;-61
2023/05/03 08:06:37;;;;;;;;;;;;;;;;;;5067536;28;19974;-62
2023/05/03 08:09:03;;;;;;;;;;;;;;;;;;5073329;28;20251;-62
2023/05/03 08:11:29;;;;;;;;;;;;;;;;;;5070572;28;19933;-61
2023/05/03 08:13:55;;;;;;;;;;;;;;;;;;5068664;28;20276;-62
2023/05/03 08:16:21;;;;;;;;;;;;;;;;;;5073007;28;19936;-61
2023/05/03 08:18:47;;;;;;;;;;;;;;;;;;5072199;28;19932;-61
2023/05/03 08:21:13;;;;;;;;;;;;;;;;;;5070883;28;19932;-61
2023/05/03 08:23:39;;;;;;;;;;;;;;;;;;5071302;28;19924;-61
2023/05/03 08:26:06;;;;;;;;;;;;;;;;;;5074113;28;20311;-62
2023/05/03 08:28:33;;;;;;;;;;;;;;;;;;5073721;28;20396;-61
2023/05/03 08:30:58;;;;;;;;;;;;;;;;;;5072964;28;19920;-61
2023/05/03 08:33:24;;;;;;;;;;;;;;;;;;5071153;28;20559;-61
2023/05/03 08:35:51;;;;;;;;;;;;;;;;;;5067057;28;19924;-61
2023/05/03 08:38:17;;;;;;;;;;;;;;;;;;5068156;28;19970;-62
2023/05/03 08:40:43;;;;;;;;;;;;;;;;;;5067323;28;19921;-61
2023/05/03 08:43:09;;;;;;;;;;;;;;;;;;5073786;28;20296;-61
2023/05/03 08:45:34;;;;;;;;;;;;;;;;;;5072486;28;19956;-61
2023/05/03 08:48:03;;;;;;;;;;;;;;;;;;5072384;28;19932;-61
2023/05/03 08:50:29;;;;;;;;;;;;;;;;;;5060789;28;20377;-61
2023/05/03 08:52:55;;;;;;;;;;;;;;;;;;5068854;28;19928;-61
2023/05/03 08:55:21;;;;;;;;;;;;;;;;;;5068332;28;20011;-61
2023/05/03 08:57:47;;;;;;;;;;;;;;;;;;5070230;28;19924;-61
2023/05/03 09:00:14;;;;;;;;;;;;;;;;;;5066318;28;20348;-61
2023/05/03 09:02:40;;;;;;;;;;;;;;;;;;5074356;28;19974;-60
2023/05/03 09:05:06;;;;;;;;;;;;;;;;;;5071576;28;19920;-61
2023/05/03 09:07:32;;;;;;;;;;;;;;;;;;5072447;28;19927;-62
2023/05/03 09:09:59;;;;;;;;;;;;;;;;;;5071147;28;19920;-60
2023/05/03 09:12:25;;;;;;;;;;;;;;;;;;5069946;28;19925;-61
2023/05/03 09:14:51;;;;;;;;;;;;;;;;;;5068286;28;20675;-61
2023/05/03 09:17:18;;;;;;;;;;;;;;;;;;5069040;28;19928;-60
2023/05/03 09:19:43;;;;;;;;;;;;;;;;;;5061704;28;19925;-61
2023/05/03 09:22:10;;;;;;;;;;;;;;;;;;5067851;28;19931;-61
2023/05/03 09:24:36;;;;;;;;;;;;;;;;;;5070829;28;19921;-61
2023/05/03 09:27:02;;;;;;;;;;;;;;;;;;5073046;28;19965;-61
2023/05/03 09:29:28;;;;;;;;;;;;;;;;;;5071458;28;19959;-61
2023/05/03 09:31:54;;;;;;;;;;;;;;;;;;5067258;28;20298;-61
2023/05/03 09:34:20;;;;;;;;;;;;;;;;;;5068966;28;19924;-61
2023/05/03 09:36:46;;;;;;;;;;;;;;;;;;5067164;28;19997;-61
2023/05/03 09:39:12;;;;;;;;;;;;;;;;;;5068996;28;20015;-61
2023/05/03 09:41:38;;;;;;;;;;;;;;;;;;5069843;28;19936;-61
2023/05/03 09:44:05;;;;;;;;;;;;;;;;;;5072639;28;20373;-62
2023/05/03 09:46:31;;;;;;;;;;;;;;;;;;5072171;28;19978;-61
2023/05/03 09:48:57;;;;;;;;;;;;;;;;;;5072723;28;19920;-60
2023/05/03 09:51:23;;;;;;;;;;;;;;;;;;5066508;28;19925;-62
2023/05/03 09:53:49;;;;;;;;;;;;;;;;;;5068124;28;20011;-62
2023/05/03 09:56:16;;;;;;;;;;;;;;;;;;5071241;28;19920;-61
2023/05/03 09:58:42;;;;;;;;;;;;;;;;;;5070733;28;19925;-61
2023/05/03 10:01:08;;;;;;;;;;;;;;;;;;5071612;28;19979;-61
2023/05/03 10:03:34;;;;;;;;;;;;;;;;;;5065050;28;19960;-61
2023/05/03 10:06:00;;;;;;;;;;;;;;;;;;5072429;28;20665;-62
2023/05/03 10:08:26;;;;;;;;;;;;;;;;;;5066811;28;19924;-62
2023/05/03 10:10:53;;;;;;;;;;;;;;;;;;5072023;28;19927;-61
2023/05/03 10:13:18;;;;;;;;;;;;;;;;;;5067876;28;19920;-61
2023/05/03 10:15:45;;;;;;;;;;;;;;;;;;5066168;28;19920;-61
2023/05/03 10:18:11;;;;;;;;;;;;;;;;;;5065205;28;19944;-61
2023/05/03 10:20:37;;;;;;;;;;;;;;;;;;5068927;28;19928;-61
2023/05/03 10:23:03;;;;;;;;;;;;;;;;;;5062720;28;19924;-61
2023/05/03 10:25:28;;;;;;;;;;;;;;;;;;5068426;28;19943;-61
2023/05/03 10:27:54;;;;;;;;;;;;;;;;;;5062062;28;19921;-61
2023/05/03 10:30:20;;;;;;;;;;;;;;;;;;5070831;28;19963;-61
2023/05/03 10:32:46;;;;;;;;;;;;;;;;;;5070843;28;19924;-61
2023/05/03 10:35:12;;;;;;;;;;;;;;;;;;5066546;28;19925;-60
2023/05/03 10:37:38;;;;;;;;;;;;;;;;;;5064517;28;20265;-61
2023/05/03 10:40:04;;;;;;;;;;;;;;;;;;5062403;28;19959;-62
2023/05/03 10:42:30;;;;;;;;;;;;;;;;;;5060837;28;19994;-62
2023/05/03 10:44:57;;;;;;;;;;;;;;;;;;5071071;28;19920;-64
2023/05/03 10:47:23;;;;;;;;;;;;;;;;;;5060718;28;19924;-64
2023/05/03 10:49:49;;;;;;;;;;;;;;;;;;5066402;28;19931;-64
2023/05/03 10:52:15;;;;;;;;;;;;;;;;;;5066932;28;19920;-64
2023/05/03 10:54:40;;;;;;;;;;;;;;;;;;5066277;28;19947;-64
2023/05/03 10:57:07;;;;;;;;;;;;;;;;;;5070593;28;19928;-64
2023/05/03 10:59:33;;;;;;;;;;;;;;;;;;5059835;28;19924;-64
2023/05/03 11:02:00;;;;;;;;;;;;;;;;;;5067566;28;21468;-64
2023/05/03 11:04:26;;;;;;;;;;;;;;;;;;5067742;28;21778;-64
2023/05/03 11:06:55;;;;;;;;;;;;;;;;;;5067341;28;19928;-64
2023/05/03 11:09:21;;;;;;;;;;;;;;;;;;5068057;28;19974;-64
2023/05/03 11:11:47;;;;;;;;;;;;;;;;;;5068427;28;19928;-64
2023/05/03 11:14:13;;;;;;;;;;;;;;;;;;5068405;28;19931;-64
2023/05/03 11:16:45;;;;;;;;;;;;;;;;;;5068263;28;20014;-64
2023/05/03 11:19:11;;;;;;;;;;;;;;;;;;5068236;28;20547;-64
2023/05/03 11:21:37;;;;;;;;;;;;;;;;;;5067480;28;20049;-65
2023/05/03 11:24:03;;;;;;;;;;;;;;;;;;5063304;28;19978;-64
2023/05/03 11:26:29;;;;;;;;;;;;;;;;;;5068374;28;19920;-64
2023/05/03 11:28:55;;;;;;;;;;;;;;;;;;5063981;28;20373;-64
2023/05/03 11:31:21;;;;;;;;;;;;;;;;;;5051443;28;19956;-64
2023/05/03 11:33:47;;;;;;;;;;;;;;;;;;5064855;28;19957;-64
2023/05/03 11:36:13;;;;;;;;;;;;;;;;;;5061303;28;20022;-64
2023/05/03 11:38:39;;;;;;;;;;;;;;;;;;5059936;28;19924;-64
2023/05/03 11:41:05;;;;;;;;;;;;;;;;;;5063238;28;19947;-64
2023/05/03 11:43:31;;;;;;;;;;;;;;;;;;5066528;28;19920;-64
2023/05/03 11:45:57;;;;;;;;;;;;;;;;;;5062420;28;20306;-65
2023/05/03 11:48:24;;;;;;;;;;;;;;;;;;5058145;28;19964;-63
2023/05/03 11:50:53;;;;;;;;;;;;;;;;;;5073272;28;19978;-63
2023/05/03 11:53:19;;;;;;;;;;;;;;;;;;5069538;28;19920;-63
2023/05/03 11:55:47;;;;;;;;;;;;;;;;;;5074688;28;19928;-64
2023/05/03 11:58:13;;;;;;;;;;;;;;;;;;5074421;28;20027;-63
2023/05/03 12:00:40;;;;;;;;;;;;;;;;;;5073430;28;19924;-63
2023/05/03 12:03:07;;;;;;;;;;;;;;;;;;5065299;28;20402;-64
2023/05/03 12:05:33;;;;;;;;;;;;;;;;;;5060731;28;20397;-64
2023/05/03 12:07:59;;;;;;;;;;;;;;;;;;5061082;28;19974;-64
2023/05/03 12:10:25;;;;;;;;;;;;;;;;;;5073564;28;19938;-64
2023/05/03 12:12:51;;;;;;;;;;;;;;;;;;5065594;28;19928;-64
2023/05/03 12:15:17;;;;;;;;;;;;;;;;;;5068393;28;19924;-64
2023/05/03 12:17:44;;;;;;;;;;;;;;;;;;5063034;28;20267;-64
2023/05/03 12:20:11;;;;;;;;;;;;;;;;;;5060741;28;19932;-63
2023/05/03 12:22:37;;;;;;;;;;;;;;;;;;5043193;28;19924;-64
2023/05/03 12:25:03;;;;;;;;;;;;;;;;;;5068177;28;19982;-64
2023/05/03 12:27:29;;;;;;;;;;;;;;;;;;5070598;28;19921;-63
2023/05/03 12:29:54;;;;;;;;;;;;;;;;;;5069061;28;19924;-63
2023/05/03 12:32:20;;;;;;;;;;;;;;;;;;5071835;28;19986;-63
2023/05/03 12:34:46;;;;;;;;;;;;;;;;;;5068867;28;19921;-63
2023/05/03 12:37:12;;;;;;;;;;;;;;;;;;5064935;28;20639;-63
2023/05/03 12:39:38;;;;;;;;;;;;;;;;;;5070103;28;19924;-62
2023/05/03 13:12:40;;;;;;;;;;;;;;;;;;5066473;28;20269;-64
2023/05/03 13:15:06;;;;;;;;;;;;;;;;;;5064594;28;19924;-64
2023/05/03 13:17:32;;;;;;;;;;;;;;;;;;5071305;28;19982;-64
2023/05/03 13:19:58;;;;;;;;;;;;;;;;;;5071058;28;19924;-64
2023/05/03 13:22:24;;;;;;;;;;;;;;;;;;5050685;28;20003;-64
2023/05/03 13:24:50;;;;;;;;;;;;;;;;;;5047902;28;19985;-64
2023/05/03 13:27:16;;;;;;;;;;;;;;;;;;5069680;28;20007;-64
2023/05/03 13:29:42;;;;;;;;;;;;;;;;;;5071719;28;19959;-64
2023/05/03 13:32:09;;;;;;;;;;;;;;;;;;5064202;28;19966;-64
2023/05/03 13:34:35;;;;;;;;;;;;;;;;;;5064828;28;19929;-64
2023/05/03 13:37:01;;;;;;;;;;;;;;;;;;5067933;28;19921;-64
2023/05/03 13:39:27;;;;;;;;;;;;;;;;;;5069031;28;19924;-64
2023/05/03 13:41:53;;;;;;;;;;;;;;;;;;5062080;28;19928;-64
2023/05/03 13:44:19;;;;;;;;;;;;;;;;;;5062772;28;19943;-64
2023/05/03 13:46:46;;;;;;;;;;;;;;;;;;5065315;28;19927;-64
2023/05/03 13:49:12;;;;;;;;;;;;;;;;;;5067555;28;19924;-63
2023/05/03 13:51:38;;;;;;;;;;;;;;;;;;5069509;28;19927;-62
2023/05/03 13:54:04;;;;;;;;;;;;;;;;;;5069116;28;20007;-63
2023/05/03 13:56:30;;;;;;;;;;;;;;;;;;5067601;28;19925;-63
2023/05/03 13:58:56;;;;;;;;;;;;;;;;;;5070606;28;19978;-63
2023/05/03 14:01:22;;;;;;;;;;;;;;;;;;5069338;28;20385;-63
2023/05/03 14:03:48;;;;;;;;;;;;;;;;;;5068670;28;19959;-63
2023/05/03 14:06:14;;;;;;;;;;;;;;;;;;5070592;28;19964;-63
2023/05/03 14:08:40;;;;;;;;;;;;;;;;;;5066738;28;19967;-63
2023/05/03 14:11:06;;;;;;;;;;;;;;;;;;5066600;28;19990;-63
2023/05/03 14:13:32;;;;;;;;;;;;;;;;;;5068123;28;19924;-63
2023/05/03 14:15:58;;;;;;;;;;;;;;;;;;5069411;28;19921;-63
2023/05/03 14:18:24;;;;;;;;;;;;;;;;;;5069309;28;19955;-63
2023/05/03 14:20:50;;;;;;;;;;;;;;;;;;5072267;28;19967;-63
2023/05/03 14:23:16;;;;;;;;;;;;;;;;;;5069485;28;20364;-62
2023/05/03 14:25:42;;;;;;;;;;;;;;;;;;5066162;28;19995;-63
2023/05/03 14:28:08;;;;;;;;;;;;;;;;;;5066871;28;20335;-64
2023/05/03 14:30:33;;;;;;;;;;;;;;;;;;5056340;28;19924;-63
2023/05/03 14:32:59;;;;;;;;;;;;;;;;;;5065141;28;19997;-64
2023/05/03 14:35:25;;;;;;;;;;;;;;;;;;5065237;28;19935;-63
2023/05/03 14:37:51;;;;;;;;;;;;;;;;;;5067973;28;20301;-63
2023/05/03 14:40:17;;;;;;;;;;;;;;;;;;5069523;28;19977;-63
2023/05/03 14:42:43;;;;;;;;;;;;;;;;;;5071905;28;20025;-63
2023/05/03 14:45:13;;;;;;;;;;;;;;;;;;5064335;28;19921;-62
2023/05/03 14:47:39;;;;;;;;;;;;;;;;;;5067572;28;19925;-63
2023/05/03 14:50:05;;;;;;;;;;;;;;;;;;5069878;28;19920;-64
2023/05/03 14:52:31;;;;;;;;;;;;;;;;;;5048637;28;19929;-64
2023/05/03 14:54:57;;;;;;;;;;;;;;;;;;5070078;28;19924;-64
2023/05/03 14:57:23;;;;;;;;;;;;;;;;;;5071077;28;20423;-63
2023/05/03 14:59:49;;;;;;;;;;;;;;;;;;5067968;28;19920;-64
2023/05/03 15:02:15;;;;;;;;;;;;;;;;;;5066259;28;19920;-64
2023/05/03 15:04:42;;;;;;;;;;;;;;;;;;5067477;28;19950;-64
2023/05/03 15:07:08;;;;;;;;;;;;;;;;;;5068392;28;19928;-64
2023/05/03 15:09:34;;;;;;;;;;;;;;;;;;5067187;28;20633;-64
2023/05/03 15:12:03;;;;;;;;;;;;;;;;;;5068798;28;19932;-64
2023/05/03 15:14:29;;;;;;;;;;;;;;;;;;5062411;28;19928;-64
2023/05/03 15:16:55;;;;;;;;;;;;;;;;;;5063896;28;19924;-64
2023/05/03 15:19:21;;;;;;;;;;;;;;;;;;5070876;22;19937;-61
2023/05/03 15:21:47;;;;;;;;;;;;;;;;;;5030951;28;19925;-61
2023/05/03 15:24:12;;;;;;;;;;;;;;;;;;5035155;28;19928;-61
2023/05/03 15:26:38;;;;;;;;;;;;;;;;;;5029953;28;19943;-63
2023/05/03 15:29:05;;;;;;;;;;;;;;;;;;5030787;28;20015;-62
2023/05/03 15:31:31;;;;;;;;;;;;;;;;;;5008059;28;19967;-62
2023/05/03 15:33:57;;;;;;;;;;;;;;;;;;5037842;28;19920;-61
2023/05/03 15:36:23;;;;;;;;;;;;;;;;;;5026468;28;19925;-60
2023/05/03 15:38:49;;;;;;;;;;;;;;;;;;5022625;28;19952;-61
2023/05/03 15:41:15;;;;;;;;;;;;;;;;;;5025162;28;19971;-61
2023/05/03 15:43:41;;;;;;;;;;;;;;;;;;5031004;28;19921;-61
2023/05/03 15:46:07;;;;;;;;;;;;;;;;;;5029137;28;19925;-61
2023/05/03 15:48:33;;;;;;;;;;;;;;;;;;5031551;28;19975;-62
2023/05/03 15:50:58;;;;;;;;;;;;;;;;;;5022945;28;19921;-61
2023/05/03 15:53:25;;;;;;;;;;;;;;;;;;5027110;28;19925;-62
2023/05/03 15:55:51;;;;;;;;;;;;;;;;;;5024065;28;20362;-61
2023/05/03 15:58:18;;;;;;;;;;;;;;;;;;5025558;28;20279;-62
2023/05/03 16:00:44;;;;;;;;;;;;;;;;;;5032236;28;19928;-62
2023/05/03 16:03:09;;;;;;;;;;;;;;;;;;5027059;28;19924;-62
2023/05/03 16:05:35;;;;;;;;;;;;;;;;;;5024689;28;19925;-61
2023/05/03 16:08:01;;;;;;;;;;;;;;;;;;5023452;28;20091;-61
2023/05/03 16:10:27;;;;;;;;;;;;;;;;;;5033370;28;19921;-62
2023/05/03 16:12:53;;;;;;;;;;;;;;;;;;5030119;28;19928;-62
2023/05/03 16:15:19;;;;;;;;;;;;;;;;;;5027551;28;19929;-61
2023/05/03 16:17:45;;;;;;;;;;;;;;;;;;5026684;28;19925;-62
2023/05/03 16:20:11;;;;;;;;;;;;;;;;;;5024529;28;19933;-62
2023/05/03 16:22:37;;;;;;;;;;;;;;;;;;5032609;28;19925;-62
2023/05/03 16:25:06;;;;;;;;;;;;;;;;;;5037551;28;20300;-62
2023/05/03 16:27:32;;;;;;;;;;;;;;;;;;5022872;28;20016;-61
2023/05/03 16:29:58;;;;;;;;;;;;;;;;;;5033222;28;20008;-62
2023/05/03 16:32:23;;;;;;;;;;;;;;;;;;5032106;28;19925;-62
2023/05/03 16:34:50;;;;;;;;;;;;;;;;;;5038417;28;19929;-62
2023/05/03 16:37:18;;;;;;;;;;;;;;;;;;5021794;28;19931;-62
2023/05/03 16:39:43;;;;;;;;;;;;;;;;;;5039237;28;19968;-62
2023/05/03 16:42:10;;;;;;;;;;;;;;;;;;5033543;28;19956;-61
2023/05/03 16:44:36;;;;;;;;;;;;;;;;;;5025966;28;19925;-62
2023/05/03 16:47:03;;;;;;;;;;;;;;;;;;5031106;28;19978;-62
2023/05/03 16:49:29;;;;;;;;;;;;;;;;;;5039731;28;20042;-61
2023/05/03 16:51:55;;;;;;;;;;;;;;;;;;5035630;28;19926;-61
2023/05/03 16:54:22;;;;;;;;;;;;;;;;;;5032823;28;19935;-62
2023/05/03 16:56:48;;;;;;;;;;;;;;;;;;5034439;28;19928;-62
2023/05/03 16:59:15;;;;;;;;;;;;;;;;;;5035070;28;19928;-62
2023/05/03 17:01:41;;;;;;;;;;;;;;;;;;5032068;28;19932;-62
2023/05/03 17:04:07;;;;;;;;;;;;;;;;;;5023379;28;20286;-62
2023/05/03 17:06:33;;;;;;;;;;;;;;;;;;5025066;28;19925;-62
2023/05/03 17:08:59;;;;;;;;;;;;;;;;;;5027234;28;19925;-61